createdAt,value
2018-09-14T00:00:12.309Z,11.02
2018-09-14T00:01:12.313Z,11.11
2018-09-14T00:02:12.299Z,11.15
2018-09-14T00:03:12.500Z,11.11
2018-09-14T00:04:12.298Z,11.17
2018-09-14T00:05:12.300Z,11.12
2018-09-14T00:06:12.299Z,11.07
2018-09-14T00:07:12.506Z,11.08
2018-09-14T00:08:12.325Z,10.96
2018-09-14T00:09:12.294Z,11.02
2018-09-14T00:10:12.305Z,11.00
2018-09-14T00:11:12.305Z,10.94
2018-09-14T00:12:12.498Z,10.87
2018-09-14T00:13:12.293Z,10.87
2018-09-14T00:14:12.307Z,10.79
2018-09-14T00:15:12.291Z,10.79
2018-09-14T00:16:12.492Z,10.72
2018-09-14T00:17:12.302Z,10.74
2018-09-14T00:18:12.495Z,10.74
2018-09-14T00:19:12.287Z,10.74
2018-09-14T00:20:12.307Z,10.90
2018-09-14T00:21:12.305Z,10.82
2018-09-14T00:22:12.294Z,10.82
2018-09-14T00:23:12.295Z,10.82
2018-09-14T00:24:12.488Z,10.76
2018-09-14T00:25:12.286Z,10.87
2018-09-14T00:26:12.293Z,10.92
2018-09-14T00:27:12.311Z,10.93
2018-09-14T00:28:12.294Z,10.93
2018-09-14T00:29:12.280Z,11.00
2018-09-14T00:30:12.281Z,10.96
2018-09-14T00:31:12.491Z,11.05
2018-09-14T00:32:12.299Z,11.04
2018-09-14T00:33:12.482Z,11.02
2018-09-14T00:34:12.287Z,11.10
2018-09-14T00:35:12.274Z,11.07
2018-09-14T00:36:12.277Z,10.93
2018-09-14T00:37:12.287Z,10.96
2018-09-14T00:38:12.282Z,10.92
2018-09-14T00:39:12.288Z,10.92
2018-09-14T00:40:12.271Z,10.84
2018-09-14T00:41:12.271Z,10.82
2018-09-14T00:42:12.474Z,10.75
2018-09-14T00:43:12.270Z,10.68
2018-09-14T00:44:12.488Z,10.64
2018-09-14T00:45:12.269Z,10.60
2018-09-14T00:46:12.268Z,10.60
2018-09-14T00:47:12.266Z,10.67
2018-09-14T00:48:12.271Z,10.69
2018-09-14T00:49:12.286Z,10.64
2018-09-14T00:50:12.269Z,10.60
2018-09-14T00:51:12.261Z,10.69
2018-09-14T00:52:12.262Z,10.53
2018-09-14T00:53:12.262Z,10.57
2018-09-14T00:54:12.477Z,10.61
2018-09-14T00:55:12.270Z,10.68
2018-09-14T00:56:12.258Z,10.61
2018-09-14T00:57:12.268Z,10.61
2018-09-14T00:58:12.269Z,10.67
2018-09-14T00:59:12.270Z,10.68
2018-09-14T01:00:12.258Z,10.60
2018-09-14T01:01:12.272Z,10.67
2018-09-14T01:02:12.457Z,10.68
2018-09-14T01:03:12.252Z,10.60
2018-09-14T01:04:12.256Z,10.69
2018-09-14T01:05:12.252Z,10.63
2018-09-14T01:06:12.250Z,10.67
2018-09-14T01:07:12.252Z,10.64
2018-09-14T01:08:12.272Z,10.53
2018-09-14T01:09:12.461Z,10.53
2018-09-14T01:10:12.245Z,10.53
2018-09-14T01:11:12.245Z,10.49
2018-09-14T01:12:12.246Z,10.40
2018-09-14T01:13:12.244Z,10.40
2018-09-14T01:14:12.246Z,10.48
2018-09-14T01:15:12.262Z,10.44
2018-09-14T01:16:12.446Z,10.42
2018-09-14T01:17:12.402Z,10.41
2018-09-14T01:18:12.240Z,10.46
2018-09-14T01:19:12.253Z,10.41
2018-09-14T01:20:12.289Z,10.44
2018-09-14T01:21:12.249Z,10.33
2018-09-14T01:22:12.245Z,10.28
2018-09-14T01:23:12.249Z,10.23
2018-09-14T01:24:12.247Z,10.12
2018-09-14T01:25:12.231Z,10.13
2018-09-14T01:26:12.447Z,10.10
2018-09-14T01:27:12.230Z,10.13
2018-09-14T01:28:12.443Z,10.20
2018-09-14T01:29:12.239Z,10.15
2018-09-14T01:30:12.227Z,10.20
2018-09-14T01:31:12.226Z,10.25
2018-09-14T01:32:12.234Z,10.25
2018-09-14T01:33:12.234Z,10.13
2018-09-14T01:34:12.239Z,10.20
2018-09-14T01:35:12.236Z,10.23
2018-09-14T01:36:12.231Z,10.17
2018-09-14T01:37:12.221Z,10.17
2018-09-14T01:38:12.223Z,10.15
2018-09-14T01:39:12.233Z,10.07
2018-09-14T01:40:12.240Z,10.07
2018-09-14T01:41:12.225Z,10.15
2018-09-14T01:42:12.441Z,10.17
2018-09-14T01:43:12.231Z,10.12
2018-09-14T01:44:12.225Z,10.12
2018-09-14T01:45:12.216Z,10.19
2018-09-14T01:46:12.222Z,10.19
2018-09-14T01:47:12.220Z,10.09
2018-09-14T01:48:12.217Z,10.13
2018-09-14T01:49:12.220Z,10.10
2018-09-14T01:50:12.203Z,10.16
2018-09-14T01:51:12.209Z,10.15
2018-09-14T01:52:12.228Z,10.10
2018-09-14T01:53:12.216Z,10.09
2018-09-14T01:54:12.226Z,10.10
2018-09-14T01:55:12.199Z,10.12
2018-09-14T01:56:12.402Z,10.10
2018-09-14T01:57:12.201Z,10.05
2018-09-14T01:58:12.198Z,10.10
2018-09-14T01:59:12.411Z,10.16
2018-09-14T02:00:12.198Z,10.12
2018-09-14T02:01:12.194Z,10.19
2018-09-14T02:02:12.202Z,10.13
2018-09-14T02:03:12.189Z,10.10
2018-09-14T02:04:12.201Z,10.10
2018-09-14T02:05:12.203Z,10.10
2018-09-14T02:06:12.190Z,9.99
2018-09-14T02:07:12.187Z,10.04
2018-09-14T02:08:12.184Z,10.07
2018-09-14T02:09:12.188Z,10.07
2018-09-14T02:10:12.181Z,10.07
2018-09-14T02:11:12.187Z,10.12
2018-09-14T02:12:12.189Z,9.94
2018-09-14T02:13:12.178Z,9.98
2018-09-14T02:14:12.200Z,9.83
2018-09-14T02:15:12.187Z,9.83
2018-09-14T02:16:12.390Z,9.76
2018-09-14T02:17:12.176Z,9.73
2018-09-14T02:18:12.185Z,9.72
2018-09-14T02:19:12.174Z,9.69
2018-09-14T02:20:12.187Z,9.69
2018-09-14T02:21:12.383Z,9.72
2018-09-14T02:22:12.169Z,9.58
2018-09-14T02:23:12.369Z,9.62
2018-09-14T02:24:12.184Z,9.55
2018-09-14T02:25:12.166Z,9.59
2018-09-14T02:26:12.165Z,9.56
2018-09-14T02:27:12.176Z,9.47
2018-09-14T02:28:12.163Z,9.54
2018-09-14T02:29:12.363Z,9.48
2018-09-14T02:30:12.176Z,9.58
2018-09-14T02:31:12.362Z,9.56
2018-09-14T02:32:12.160Z,9.58
2018-09-14T02:33:12.373Z,9.47
2018-09-14T02:34:12.164Z,9.48
2018-09-14T02:35:12.371Z,9.44
2018-09-14T02:36:12.371Z,9.47
2018-09-14T02:37:12.163Z,9.47
2018-09-14T02:38:12.367Z,9.47
2018-09-14T02:39:12.163Z,9.54
2018-09-14T02:40:12.163Z,9.46
2018-09-14T02:41:12.360Z,9.46
2018-09-14T02:42:12.358Z,9.46
2018-09-14T02:43:12.142Z,9.44
2018-09-14T02:44:12.143Z,9.47
2018-09-14T02:45:12.140Z,9.44
2018-09-14T02:46:12.149Z,9.54
2018-09-14T02:47:12.151Z,9.58
2018-09-14T02:48:12.145Z,9.65
2018-09-14T02:49:12.341Z,9.69
2018-09-14T02:50:12.346Z,9.59
2018-09-14T02:51:12.132Z,9.66
2018-09-14T02:52:12.155Z,9.69
2018-09-14T02:53:12.149Z,9.72
2018-09-14T02:54:12.139Z,9.68
2018-09-14T02:55:12.138Z,9.73
2018-09-14T02:56:12.340Z,9.64
2018-09-14T02:57:12.127Z,9.56
2018-09-14T02:58:12.325Z,9.50
2018-09-14T02:59:12.122Z,9.41
2018-09-14T03:00:12.184Z,9.34
2018-09-14T03:01:12.350Z,9.39
2018-09-14T03:02:12.131Z,9.37
2018-09-14T03:03:12.126Z,9.47
2018-09-14T03:04:12.117Z,9.43
2018-09-14T03:05:12.127Z,9.59
2018-09-14T03:06:12.121Z,9.58
2018-09-14T03:07:12.120Z,9.61
2018-09-14T03:08:12.108Z,9.72
2018-09-14T03:09:12.117Z,9.68
2018-09-14T03:10:12.323Z,9.73
2018-09-14T03:11:12.127Z,9.79
2018-09-14T03:12:12.122Z,9.77
2018-09-14T03:13:12.127Z,9.87
2018-09-14T03:14:12.315Z,9.82
2018-09-14T03:15:12.100Z,9.73
2018-09-14T03:16:12.117Z,9.54
2018-09-14T03:17:12.312Z,9.61
2018-09-14T03:18:12.313Z,9.51
2018-09-14T03:19:12.107Z,9.48
2018-09-14T03:20:12.092Z,9.46
2018-09-14T03:21:12.093Z,9.44
2018-09-14T03:22:12.102Z,9.36
2018-09-14T03:23:12.086Z,9.36
2018-09-14T03:24:12.088Z,9.34
2018-09-14T03:25:12.085Z,9.32
2018-09-14T03:26:12.084Z,9.41
2018-09-14T03:27:12.084Z,9.29
2018-09-14T03:28:12.080Z,9.32
2018-09-14T03:29:12.335Z,9.32
2018-09-14T03:30:12.079Z,9.23
2018-09-14T03:31:12.089Z,9.26
2018-09-14T03:32:12.168Z,9.25
2018-09-14T03:33:12.087Z,9.28
2018-09-14T03:34:12.073Z,9.26
2018-09-14T03:35:12.274Z,9.21
2018-09-14T03:36:12.275Z,9.23
2018-09-14T03:37:12.080Z,9.25
2018-09-14T03:38:12.078Z,9.16
2018-09-14T03:39:12.108Z,9.26
2018-09-14T03:40:12.265Z,9.13
2018-09-14T03:41:12.071Z,9.16
2018-09-14T03:42:12.061Z,9.13
2018-09-14T03:43:12.261Z,9.14
2018-09-14T03:44:12.056Z,9.06
2018-09-14T03:45:12.063Z,9.14
2018-09-14T03:46:12.270Z,9.13
2018-09-14T03:47:12.258Z,9.11
2018-09-14T03:48:12.067Z,9.08
2018-09-14T03:49:12.063Z,9.08
2018-09-14T03:50:12.053Z,9.00
2018-09-14T03:51:12.259Z,9.00
2018-09-14T03:52:12.044Z,8.99
2018-09-14T03:53:12.248Z,9.04
2018-09-14T03:54:12.051Z,9.02
2018-09-14T03:55:12.038Z,9.11
2018-09-14T03:56:12.048Z,9.04
2018-09-14T03:57:12.085Z,8.99
2018-09-14T03:58:12.061Z,9.06
2018-09-14T03:59:12.054Z,9.02
2018-09-14T04:00:12.090Z,9.08
2018-09-14T04:01:12.029Z,9.02
2018-09-14T04:02:12.232Z,9.11
2018-09-14T04:03:12.229Z,9.00
2018-09-14T04:04:12.023Z,9.03
2018-09-14T04:05:12.023Z,9.11
2018-09-14T04:06:12.045Z,8.95
2018-09-14T04:07:12.237Z,9.00
2018-09-14T04:08:12.043Z,8.97
2018-09-14T04:09:12.029Z,8.94
2018-09-14T04:10:12.040Z,8.91
2018-09-14T04:11:12.237Z,8.82
2018-09-14T04:12:12.016Z,8.81
2018-09-14T04:13:12.026Z,8.84
2018-09-14T04:14:12.062Z,8.70
2018-09-14T04:15:12.012Z,8.81
2018-09-14T04:16:12.006Z,8.79
2018-09-14T04:17:12.065Z,8.87
2018-09-14T04:18:12.004Z,8.97
2018-09-14T04:19:12.002Z,8.92
2018-09-14T04:20:11.998Z,8.97
2018-09-14T04:21:12.211Z,9.02
2018-09-14T04:22:12.040Z,8.97
2018-09-14T04:23:12.015Z,8.92
2018-09-14T04:24:11.992Z,8.89
2018-09-14T04:25:12.018Z,8.87
2018-09-14T04:26:12.000Z,8.79
2018-09-14T04:27:12.192Z,8.81
2018-09-14T04:28:11.986Z,8.76
2018-09-14T04:29:11.986Z,8.84
2018-09-14T04:30:11.981Z,8.84
2018-09-14T04:31:11.990Z,8.78
2018-09-14T04:32:12.183Z,8.74
2018-09-14T04:33:11.992Z,8.71
2018-09-14T04:34:11.980Z,8.73
2018-09-14T04:35:11.977Z,8.73
2018-09-14T04:36:12.038Z,8.66
2018-09-14T04:37:11.971Z,8.73
2018-09-14T04:38:12.135Z,8.69
2018-09-14T04:39:11.992Z,8.64
2018-09-14T04:40:11.966Z,8.70
2018-09-14T04:41:11.973Z,8.67
2018-09-14T04:42:11.969Z,8.61
2018-09-14T04:43:12.164Z,8.67
2018-09-14T04:44:11.960Z,8.69
2018-09-14T04:45:11.958Z,8.63
2018-09-14T04:46:11.953Z,8.61
2018-09-14T04:47:11.950Z,8.56
2018-09-14T04:48:11.963Z,8.60
2018-09-14T04:49:11.948Z,8.60
2018-09-14T04:50:12.148Z,8.58
2018-09-14T04:51:12.053Z,8.64
2018-09-14T04:52:11.946Z,8.70
2018-09-14T04:53:11.943Z,8.82
2018-09-14T04:54:11.978Z,8.89
2018-09-14T04:55:11.938Z,8.85
2018-09-14T04:56:11.937Z,8.94
2018-09-14T04:57:11.969Z,8.95
2018-09-14T04:58:12.148Z,8.94
2018-09-14T04:59:11.951Z,8.92
2018-09-14T05:00:12.151Z,8.95
2018-09-14T05:01:11.933Z,8.87
2018-09-14T05:02:12.130Z,8.87
2018-09-14T05:03:12.179Z,8.79
2018-09-14T05:04:11.924Z,8.78
2018-09-14T05:05:11.922Z,8.76
2018-09-14T05:06:11.918Z,8.67
2018-09-14T05:07:11.924Z,8.58
2018-09-14T05:08:11.913Z,8.53
2018-09-14T05:09:12.117Z,8.60
2018-09-14T05:10:11.911Z,8.58
2018-09-14T05:11:12.120Z,8.58
2018-09-14T05:12:11.911Z,8.64
2018-09-14T05:13:11.907Z,8.66
2018-09-14T05:14:11.930Z,8.64
2018-09-14T05:15:11.902Z,8.71
2018-09-14T05:16:12.102Z,8.71
2018-09-14T05:17:11.911Z,8.81
2018-09-14T05:18:11.895Z,8.92
2018-09-14T05:19:11.895Z,8.88
2018-09-14T05:20:11.903Z,8.94
2018-09-14T05:21:12.092Z,8.94
2018-09-14T05:22:11.891Z,9.02
2018-09-14T05:23:11.887Z,8.99
2018-09-14T05:24:11.933Z,8.92
2018-09-14T05:25:12.104Z,9.02
2018-09-14T05:26:11.898Z,9.02
2018-09-14T05:27:11.893Z,8.97
2018-09-14T05:28:11.894Z,9.00
2018-09-14T05:29:11.886Z,8.97
2018-09-14T05:30:12.098Z,9.00
2018-09-14T05:31:12.075Z,8.94
2018-09-14T05:32:11.881Z,8.99
2018-09-14T05:33:11.880Z,8.92
2018-09-14T05:34:11.876Z,8.91
2018-09-14T05:35:12.091Z,8.99
2018-09-14T05:36:11.864Z,9.00
2018-09-14T05:37:12.069Z,8.92
2018-09-14T05:38:11.896Z,8.94
2018-09-14T05:39:11.870Z,8.91
2018-09-14T05:40:11.883Z,8.99
2018-09-14T05:41:11.853Z,9.13
2018-09-14T05:42:11.851Z,9.10
2018-09-14T05:43:11.860Z,9.10
2018-09-14T05:44:11.847Z,9.18
2018-09-14T05:45:11.860Z,9.19
2018-09-14T05:46:11.845Z,9.16
2018-09-14T05:47:11.847Z,9.31
2018-09-14T05:48:11.842Z,9.34
2018-09-14T05:49:11.850Z,9.34
2018-09-14T05:50:11.836Z,9.32
2018-09-14T05:51:11.836Z,9.36
2018-09-14T05:52:11.832Z,9.36
2018-09-14T05:53:11.843Z,9.39
2018-09-14T05:54:12.030Z,9.46
2018-09-14T05:55:11.827Z,9.43
2018-09-14T05:56:11.829Z,9.51
2018-09-14T05:57:11.827Z,9.47
2018-09-14T05:58:11.834Z,9.55
2018-09-14T05:59:11.822Z,9.59
2018-09-14T06:00:11.829Z,9.59
2018-09-14T06:01:11.819Z,9.72
2018-09-14T06:02:11.814Z,9.73
2018-09-14T06:03:11.824Z,9.72
2018-09-14T06:04:11.825Z,9.79
2018-09-14T06:05:11.820Z,9.87
2018-09-14T06:06:12.030Z,9.83
2018-09-14T06:07:12.025Z,10.01
2018-09-14T06:08:11.802Z,9.94
2018-09-14T06:09:11.802Z,9.98
2018-09-14T06:10:11.827Z,10.12
2018-09-14T06:11:11.804Z,10.13
2018-09-14T06:12:11.811Z,10.10
2018-09-14T06:13:11.798Z,10.12
2018-09-14T06:14:11.844Z,10.20
2018-09-14T06:15:11.793Z,10.28
2018-09-14T06:16:11.997Z,10.35
2018-09-14T06:17:11.865Z,10.34
2018-09-14T06:18:11.786Z,10.42
2018-09-14T06:19:11.798Z,10.48
2018-09-14T06:20:12.001Z,10.42
2018-09-14T06:21:11.783Z,10.49
2018-09-14T06:22:11.987Z,10.60
2018-09-14T06:23:11.789Z,10.67
2018-09-14T06:24:11.794Z,10.69
2018-09-14T06:25:11.982Z,10.60
2018-09-14T06:26:11.799Z,10.69
2018-09-14T06:27:11.781Z,10.79
2018-09-14T06:28:11.801Z,10.87
2018-09-14T06:29:11.976Z,10.79
2018-09-14T06:30:11.780Z,10.92
2018-09-14T06:31:11.972Z,10.99
2018-09-14T06:32:11.766Z,10.99
2018-09-14T06:33:11.785Z,11.10
2018-09-14T06:34:11.978Z,11.12
2018-09-14T06:35:11.789Z,11.07
2018-09-14T06:36:11.777Z,11.14
2018-09-14T06:37:11.758Z,11.22
2018-09-14T06:38:11.783Z,11.26
2018-09-14T06:39:11.765Z,11.32
2018-09-14T06:40:11.757Z,11.44
2018-09-14T06:41:11.769Z,11.40
2018-09-14T06:42:11.979Z,11.43
2018-09-14T06:43:11.969Z,11.54
2018-09-14T06:44:11.749Z,11.59
2018-09-14T06:45:11.816Z,11.54
2018-09-14T06:46:11.744Z,11.62
2018-09-14T06:47:11.748Z,11.69
2018-09-14T06:48:11.753Z,11.80
2018-09-14T06:49:11.741Z,11.77
2018-09-14T06:50:11.740Z,11.81
2018-09-14T06:51:11.944Z,11.75
2018-09-14T06:52:11.831Z,11.88
2018-09-14T06:53:11.795Z,11.81
2018-09-14T06:54:11.766Z,11.94
2018-09-14T06:55:11.750Z,11.95
2018-09-14T06:56:11.735Z,12.12
2018-09-14T06:57:11.748Z,12.09
2018-09-14T06:58:11.747Z,12.15
2018-09-14T06:59:11.747Z,12.24
2018-09-14T07:00:12.095Z,12.25
2018-09-14T07:01:11.934Z,12.37
2018-09-14T07:02:11.729Z,12.42
2018-09-14T07:03:11.727Z,12.37
2018-09-14T07:04:11.727Z,12.53
2018-09-14T07:05:11.741Z,12.64
2018-09-14T07:06:11.735Z,12.64
2018-09-14T07:07:11.733Z,12.70
2018-09-14T07:08:11.735Z,12.73
2018-09-14T07:09:11.735Z,12.79
2018-09-14T07:10:11.936Z,12.76
2018-09-14T07:11:11.718Z,12.85
2018-09-14T07:12:11.719Z,12.86
2018-09-14T07:13:11.784Z,12.90
2018-09-14T07:14:11.719Z,12.79
2018-09-14T07:15:11.946Z,12.95
2018-09-14T07:16:11.716Z,12.95
2018-09-14T07:17:11.714Z,12.94
2018-09-14T07:18:11.715Z,12.97
2018-09-14T07:19:11.916Z,13.08
2018-09-14T07:20:11.714Z,13.05
2018-09-14T07:21:11.742Z,13.11
2018-09-14T07:22:11.991Z,13.23
2018-09-14T07:23:11.725Z,13.35
2018-09-14T07:24:11.736Z,13.33
2018-09-14T07:25:11.722Z,13.38
2018-09-14T07:26:11.946Z,13.47
2018-09-14T07:27:11.725Z,13.49
2018-09-14T07:28:11.710Z,13.53
2018-09-14T07:29:11.911Z,13.52
2018-09-14T07:30:11.765Z,13.71
2018-09-14T07:31:11.928Z,13.65
2018-09-14T07:32:11.738Z,13.78
2018-09-14T07:33:11.723Z,13.79
2018-09-14T07:34:11.707Z,13.92
2018-09-14T07:35:11.722Z,14.00
2018-09-14T07:36:11.706Z,14.03
2018-09-14T07:37:11.710Z,14.00
2018-09-14T07:38:11.720Z,14.04
2018-09-14T07:39:11.727Z,14.04
2018-09-14T07:40:11.719Z,14.10
2018-09-14T07:41:11.908Z,14.07
2018-09-14T07:42:11.734Z,14.15
2018-09-14T07:43:11.922Z,14.15
2018-09-14T07:44:11.909Z,14.29
2018-09-14T07:45:11.708Z,14.35
2018-09-14T07:46:11.906Z,14.43
2018-09-14T07:47:11.719Z,14.50
2018-09-14T07:48:11.910Z,14.66
2018-09-14T07:49:11.732Z,14.81
2018-09-14T07:50:11.704Z,14.79
2018-09-14T07:51:11.705Z,14.92
2018-09-14T07:52:11.926Z,14.92
2018-09-14T07:53:11.908Z,14.94
2018-09-14T07:54:11.910Z,14.91
2018-09-14T07:55:11.911Z,14.89
2018-09-14T07:56:11.705Z,14.94
2018-09-14T07:57:11.717Z,15.02
2018-09-14T07:58:11.923Z,15.02
2018-09-14T07:59:11.917Z,14.99
2018-09-14T08:00:11.705Z,15.11
2018-09-14T08:01:11.733Z,15.07
2018-09-14T08:02:11.921Z,15.27
2018-09-14T08:03:11.717Z,15.42
2018-09-14T08:04:11.734Z,15.54
2018-09-14T08:05:11.709Z,15.79
2018-09-14T08:06:11.784Z,16.08
2018-09-14T08:07:11.922Z,16.26
2018-09-14T08:08:11.709Z,16.61
2018-09-14T08:09:11.724Z,16.93
2018-09-14T08:10:11.710Z,16.97
2018-09-14T08:11:11.915Z,17.14
2018-09-14T08:12:11.711Z,17.11
2018-09-14T08:13:11.981Z,16.99
2018-09-14T08:14:11.714Z,16.89
2018-09-14T08:15:11.722Z,16.75
2018-09-14T08:16:11.724Z,16.56
2018-09-14T08:17:11.715Z,16.47
2018-09-14T08:18:11.918Z,16.39
2018-09-14T08:19:11.737Z,16.24
2018-09-14T08:20:11.741Z,16.26
2018-09-14T08:21:11.851Z,16.10
2018-09-14T08:22:11.719Z,16.12
2018-09-14T08:23:11.737Z,16.01
2018-09-14T08:24:11.725Z,16.01
2018-09-14T08:25:11.721Z,16.09
2018-09-14T08:26:11.727Z,16.09
2018-09-14T08:27:11.752Z,16.12
2018-09-14T08:28:11.721Z,16.26
2018-09-14T08:29:11.922Z,16.20
2018-09-14T08:30:11.748Z,16.15
2018-09-14T08:31:11.948Z,16.15
2018-09-14T08:32:11.745Z,16.05
2018-09-14T08:33:11.743Z,16.04
2018-09-14T08:34:11.742Z,16.01
2018-09-14T08:35:11.941Z,16.08
2018-09-14T08:36:11.936Z,16.20
2018-09-14T08:37:11.765Z,16.36
2018-09-14T08:38:11.937Z,16.32
2018-09-14T08:39:11.753Z,16.31
2018-09-14T08:40:11.942Z,16.33
2018-09-14T08:41:11.736Z,16.21
2018-09-14T08:42:11.737Z,16.23
2018-09-14T08:43:11.726Z,16.29
2018-09-14T08:44:11.944Z,16.35
2018-09-14T08:45:11.749Z,16.24
2018-09-14T08:46:11.725Z,16.26
2018-09-14T08:47:11.736Z,16.41
2018-09-14T08:48:11.739Z,16.36
2018-09-14T08:49:11.732Z,16.39
2018-09-14T08:50:11.743Z,16.56
2018-09-14T08:51:11.744Z,16.65
2018-09-14T08:52:11.731Z,16.71
2018-09-14T08:53:11.749Z,16.74
2018-09-14T08:54:11.731Z,16.79
2018-09-14T08:55:11.738Z,16.72
2018-09-14T08:56:11.746Z,16.61
2018-09-14T08:57:11.745Z,16.66
2018-09-14T08:58:11.777Z,16.61
2018-09-14T08:59:11.960Z,16.58
2018-09-14T09:00:11.737Z,16.57
2018-09-14T09:01:11.954Z,16.66
2018-09-14T09:02:11.746Z,16.61
2018-09-14T09:03:11.738Z,16.56
2018-09-14T09:04:11.739Z,16.49
2018-09-14T09:05:11.742Z,16.43
2018-09-14T09:06:11.743Z,16.42
2018-09-14T09:07:11.799Z,16.38
2018-09-14T09:08:11.957Z,16.33
2018-09-14T09:09:11.808Z,16.46
2018-09-14T09:10:11.742Z,16.38
2018-09-14T09:11:11.762Z,16.31
2018-09-14T09:12:11.749Z,16.31
2018-09-14T09:13:11.749Z,16.28
2018-09-14T09:14:11.746Z,16.36
2018-09-14T09:15:11.952Z,16.28
2018-09-14T09:16:11.773Z,16.21
2018-09-14T09:17:11.776Z,16.29
2018-09-14T09:18:11.751Z,16.42
2018-09-14T09:19:11.816Z,16.43
2018-09-14T09:20:11.768Z,16.42
2018-09-14T09:21:11.965Z,16.41
2018-09-14T09:22:11.762Z,16.41
2018-09-14T09:23:11.755Z,16.36
2018-09-14T09:24:11.961Z,16.29
2018-09-14T09:25:11.764Z,16.29
2018-09-14T09:26:12.035Z,16.21
2018-09-14T09:27:11.958Z,16.23
2018-09-14T09:28:11.779Z,16.21
2018-09-14T09:29:11.771Z,16.16
2018-09-14T09:30:11.760Z,16.17
2018-09-14T09:31:11.759Z,16.16
2018-09-14T09:32:11.979Z,16.17
2018-09-14T09:33:11.788Z,16.20
2018-09-14T09:34:11.774Z,16.28
2018-09-14T09:35:11.763Z,16.24
2018-09-14T09:36:11.762Z,16.21
2018-09-14T09:37:11.762Z,16.29
2018-09-14T09:38:11.763Z,16.47
2018-09-14T09:39:11.777Z,16.41
2018-09-14T09:40:11.777Z,16.54
2018-09-14T09:41:11.969Z,16.61
2018-09-14T09:42:11.769Z,16.58
2018-09-14T09:43:11.869Z,16.61
2018-09-14T09:44:11.971Z,16.57
2018-09-14T09:45:11.773Z,16.57
2018-09-14T09:46:11.782Z,16.53
2018-09-14T09:47:11.972Z,16.41
2018-09-14T09:48:11.993Z,16.42
2018-09-14T09:49:11.774Z,16.50
2018-09-14T09:50:11.772Z,16.46
2018-09-14T09:51:11.823Z,16.57
2018-09-14T09:52:11.774Z,16.72
2018-09-14T09:53:11.780Z,16.71
2018-09-14T09:54:11.778Z,16.71
2018-09-14T09:55:11.875Z,16.87
2018-09-14T09:56:11.776Z,17.04
2018-09-14T09:57:11.788Z,17.15
2018-09-14T09:58:11.779Z,17.27
2018-09-14T09:59:11.784Z,17.38
2018-09-14T10:00:11.801Z,17.36
2018-09-14T10:01:11.784Z,17.29
2018-09-14T10:02:11.799Z,17.27
2018-09-14T10:03:11.988Z,17.14
2018-09-14T10:04:11.899Z,17.08
2018-09-14T10:05:11.785Z,17.06
2018-09-14T10:06:11.987Z,17.04
2018-09-14T10:07:11.988Z,17.04
2018-09-14T10:08:11.788Z,17.02
2018-09-14T10:09:11.790Z,17.16
2018-09-14T10:10:11.997Z,17.20
2018-09-14T10:11:11.808Z,17.29
2018-09-14T10:12:11.806Z,17.38
2018-09-14T10:13:11.998Z,17.39
2018-09-14T10:14:12.069Z,17.27
2018-09-14T10:15:12.012Z,17.26
2018-09-14T10:16:11.810Z,17.20
2018-09-14T10:17:11.808Z,17.20
2018-09-14T10:18:12.009Z,17.16
2018-09-14T10:19:12.013Z,17.19
2018-09-14T10:20:12.029Z,17.20
2018-09-14T10:21:12.088Z,17.20
2018-09-14T10:22:11.813Z,17.23
2018-09-14T10:23:11.815Z,17.27
2018-09-14T10:24:12.016Z,17.20
2018-09-14T10:25:11.804Z,17.11
2018-09-14T10:26:11.814Z,17.06
2018-09-14T10:27:11.804Z,17.02
2018-09-14T10:28:11.817Z,16.89
2018-09-14T10:29:11.810Z,16.78
2018-09-14T10:30:11.830Z,16.72
2018-09-14T10:31:11.833Z,16.89
2018-09-14T10:32:11.827Z,16.83
2018-09-14T10:33:11.821Z,16.90
2018-09-14T10:34:11.820Z,16.89
2018-09-14T10:35:11.929Z,16.87
2018-09-14T10:36:11.815Z,16.90
2018-09-14T10:37:11.820Z,16.84
2018-09-14T10:38:11.827Z,16.83
2018-09-14T10:39:11.828Z,16.89
2018-09-14T10:40:11.871Z,16.96
2018-09-14T10:41:11.819Z,17.02
2018-09-14T10:42:11.819Z,17.06
2018-09-14T10:43:11.821Z,17.01
2018-09-14T10:44:11.819Z,16.90
2018-09-14T10:45:11.874Z,16.87
2018-09-14T10:46:12.035Z,16.84
2018-09-14T10:47:11.822Z,16.83
2018-09-14T10:48:11.833Z,16.78
2018-09-14T10:49:11.889Z,16.86
2018-09-14T10:50:11.838Z,16.87
2018-09-14T10:51:11.837Z,16.97
2018-09-14T10:52:11.840Z,16.94
2018-09-14T10:53:11.828Z,16.97
2018-09-14T10:54:11.881Z,16.96
2018-09-14T10:55:11.903Z,17.01
2018-09-14T10:56:11.831Z,16.86
2018-09-14T10:57:11.831Z,16.87
2018-09-14T10:58:11.858Z,16.89
2018-09-14T10:59:11.833Z,16.84
2018-09-14T11:00:11.846Z,16.94
2018-09-14T11:01:12.040Z,16.97
2018-09-14T11:02:11.853Z,17.01
2018-09-14T11:03:12.042Z,17.02
2018-09-14T11:04:12.041Z,17.02
2018-09-14T11:05:11.838Z,17.05
2018-09-14T11:06:11.843Z,17.02
2018-09-14T11:07:11.844Z,16.99
2018-09-14T11:08:12.046Z,17.02
2018-09-14T11:09:12.044Z,16.99
2018-09-14T11:10:11.842Z,16.96
2018-09-14T11:11:11.853Z,16.96
2018-09-14T11:12:11.847Z,17.01
2018-09-14T11:13:11.844Z,17.02
2018-09-14T11:14:11.847Z,17.08
2018-09-14T11:15:12.063Z,17.11
2018-09-14T11:16:11.849Z,17.08
2018-09-14T11:17:11.851Z,17.08
2018-09-14T11:18:11.851Z,17.12
2018-09-14T11:19:12.054Z,17.12
2018-09-14T11:20:12.068Z,17.15
2018-09-14T11:21:11.853Z,17.20
2018-09-14T11:22:11.854Z,17.20
2018-09-14T11:23:12.071Z,17.26
2018-09-14T11:24:11.858Z,17.29
2018-09-14T11:25:11.998Z,17.24
2018-09-14T11:26:11.857Z,17.26
2018-09-14T11:27:11.878Z,17.27
2018-09-14T11:28:11.865Z,17.26
2018-09-14T11:29:12.078Z,17.22
2018-09-14T11:30:12.065Z,17.19
2018-09-14T11:31:11.863Z,17.23
2018-09-14T11:32:11.915Z,17.15
2018-09-14T11:33:11.893Z,17.16
2018-09-14T11:34:11.879Z,17.33
2018-09-14T11:35:12.082Z,17.52
2018-09-14T11:36:11.882Z,17.52
2018-09-14T11:37:11.899Z,17.68
2018-09-14T11:38:11.878Z,17.74
2018-09-14T11:39:12.094Z,17.89
2018-09-14T11:40:11.888Z,18.01
2018-09-14T11:41:11.889Z,17.97
2018-09-14T11:42:12.082Z,17.97
2018-09-14T11:43:11.892Z,17.97
2018-09-14T11:44:12.095Z,18.04
2018-09-14T11:45:11.894Z,18.16
2018-09-14T11:46:12.210Z,18.11
2018-09-14T11:47:11.893Z,18.01
2018-09-14T11:48:11.885Z,18.05
2018-09-14T11:49:11.915Z,18.31
2018-09-14T11:50:11.900Z,18.25
2018-09-14T11:51:11.895Z,18.26
2018-09-14T11:52:11.890Z,18.29
2018-09-14T11:53:12.103Z,18.37
2018-09-14T11:54:12.192Z,18.37
2018-09-14T11:55:11.903Z,18.26
2018-09-14T11:56:12.097Z,18.34
2018-09-14T11:57:12.123Z,18.38
2018-09-14T11:58:11.911Z,18.34
2018-09-14T11:59:12.105Z,18.29
2018-09-14T12:00:12.116Z,18.41
2018-09-14T12:01:12.170Z,18.40
2018-09-14T12:02:11.914Z,18.34
2018-09-14T12:03:11.905Z,18.35
2018-09-14T12:04:11.949Z,18.29
2018-09-14T12:05:11.907Z,18.23
2018-09-14T12:06:11.937Z,18.26
2018-09-14T12:07:11.911Z,18.11
2018-09-14T12:08:11.912Z,18.18
2018-09-14T12:09:12.134Z,18.16
2018-09-14T12:10:11.928Z,18.13
2018-09-14T12:11:11.914Z,18.13
2018-09-14T12:12:11.933Z,18.22
2018-09-14T12:13:11.932Z,18.34
2018-09-14T12:14:12.184Z,18.41
2018-09-14T12:15:12.124Z,18.28
2018-09-14T12:16:11.927Z,18.34
2018-09-14T12:17:11.928Z,18.34
2018-09-14T12:18:12.126Z,18.33
2018-09-14T12:19:11.926Z,18.40
2018-09-14T12:20:11.938Z,18.35
2018-09-14T12:21:12.162Z,18.26
2018-09-14T12:22:11.986Z,18.31
2018-09-14T12:23:12.150Z,18.37
2018-09-14T12:24:11.940Z,18.26
2018-09-14T12:25:12.153Z,18.20
2018-09-14T12:26:12.141Z,18.20
2018-09-14T12:27:11.938Z,18.22
2018-09-14T12:28:12.208Z,18.23
2018-09-14T12:29:11.947Z,18.25
2018-09-14T12:30:11.946Z,18.13
2018-09-14T12:31:11.948Z,18.18
2018-09-14T12:32:11.958Z,18.07
2018-09-14T12:33:12.164Z,18.07
2018-09-14T12:34:11.961Z,18.16
2018-09-14T12:35:12.156Z,18.15
2018-09-14T12:36:11.982Z,18.26
2018-09-14T12:37:11.967Z,18.33
2018-09-14T12:38:11.971Z,18.38
2018-09-14T12:39:11.960Z,18.41
2018-09-14T12:40:11.961Z,18.35
2018-09-14T12:41:11.985Z,18.26
2018-09-14T12:42:12.176Z,18.33
2018-09-14T12:43:12.190Z,18.29
2018-09-14T12:44:11.965Z,18.41
2018-09-14T12:45:11.978Z,18.45
2018-09-14T12:46:11.982Z,18.52
2018-09-14T12:47:11.972Z,18.56
2018-09-14T12:48:11.987Z,18.58
2018-09-14T12:49:12.176Z,18.53
2018-09-14T12:50:11.984Z,18.52
2018-09-14T12:51:11.980Z,18.55
2018-09-14T12:52:11.992Z,18.55
2018-09-14T12:53:11.979Z,18.50
2018-09-14T12:54:12.002Z,18.38
2018-09-14T12:55:12.185Z,18.41
2018-09-14T12:56:12.244Z,18.33
2018-09-14T12:57:12.194Z,18.31
2018-09-14T12:58:11.990Z,18.33
2018-09-14T12:59:12.193Z,18.37
2018-09-14T13:00:12.214Z,18.26